Time;durP1;ratioP1;P1;durP2;ratioP2;P2;SDS_P1;SDS_P2;PMS_P1;PMS_P2;Temp;Humidity;BMP_temperature;BMP_pressure;BME280_temperature;BME280_humidity;BME280_pressure;Samples;Min_cycle;Max_cycle;Signal;HPM_P1;HPM_P2
2023/09/05 00:00:54;;;;;;;;;;;15.80;99.90;;;;;;4995923;28;19947;-31
2023/09/05 00:03:21;;;;;;;;;;;15.70;99.90;;;;;;4994574;28;20408;-31
2023/09/05 00:05:48;;;;;;;;;;;15.70;99.90;;;;;;4994979;28;19963;-32
2023/09/05 00:08:15;;;;;;;;;;;15.70;99.90;;;;;;4996482;28;20314;-31
2023/09/05 00:10:44;;;;;;;;;;;15.60;99.90;;;;;;4999022;28;20406;-32
2023/09/05 00:13:11;;;;;;;;;;;15.60;99.90;;;;;;5000055;28;19942;-32
2023/09/05 00:15:39;;;;;;;;;;;15.60;99.90;;;;;;4992661;28;20436;-33
2023/09/05 00:18:06;;;;;;;;;;;15.60;99.90;;;;;;4989766;28;19942;-32
2023/09/05 00:20:32;;;;;;;;;;;15.60;99.90;;;;;;4993266;28;20390;-32
2023/09/05 00:22:59;;;;;;;;;;;15.50;99.90;;;;;;4988430;28;19946;-31
2023/09/05 00:25:26;;;;;;;;;;;15.50;99.90;;;;;;4984788;28;19953;-31
2023/09/05 00:27:52;;;;;;;;;;;15.50;99.90;;;;;;4993738;28;19947;-31
2023/09/05 00:30:22;;;;;;;;;;;15.40;99.90;;;;;;4990923;28;19941;-33
2023/09/05 00:32:50;;;;;;;;;;;15.40;99.90;;;;;;4984272;28;19944;-32
2023/09/05 00:35:17;;;;;;;;;;;15.40;99.90;;;;;;4994211;28;20004;-33
2023/09/05 00:37:45;;;;;;;;;;;15.40;99.90;;;;;;4989575;28;20024;-31
2023/09/05 00:40:12;;;;;;;;;;;15.40;99.90;;;;;;4991410;28;19941;-32
2023/09/05 00:42:39;;;;;;;;;;;15.40;99.90;;;;;;4978520;28;19948;-31
2023/09/05 00:45:06;;;;;;;;;;;15.30;99.90;;;;;;4992322;28;20468;-31
2023/09/05 00:47:33;;;;;;;;;;;15.30;99.90;;;;;;4986295;28;19955;-31
2023/09/05 00:50:05;;;;;;;;;;;15.30;99.90;;;;;;4982451;28;19942;-32
2023/09/05 00:52:32;;;;;;;;;;;15.30;99.90;;;;;;4993612;28;20062;-31
2023/09/05 00:54:59;;;;;;;;;;;15.30;99.90;;;;;;4991193;28;19947;-32
2023/09/05 00:57:25;;;;;;;;;;;15.20;99.90;;;;;;4992051;28;20429;-32
2023/09/05 00:59:52;;;;;;;;;;;15.20;99.90;;;;;;4993793;28;20472;-32
2023/09/05 01:02:18;;;;;;;;;;;15.20;99.90;;;;;;4988022;28;20410;-34
2023/09/05 01:04:45;;;;;;;;;;;15.20;99.90;;;;;;4992317;28;19958;-31
2023/09/05 01:07:17;;;;;;;;;;;15.20;99.90;;;;;;4994316;28;19949;-31
2023/09/05 01:09:46;;;;;;;;;;;15.20;99.90;;;;;;4980286;28;19968;-32
2023/09/05 01:12:12;;;;;;;;;;;15.10;99.90;;;;;;4998990;28;19948;-32
2023/09/05 01:14:39;;;;;;;;;;;15.10;99.90;;;;;;4988980;28;19970;-32
2023/09/05 01:17:06;;;;;;;;;;;15.10;99.90;;;;;;4981079;28;20387;-32
2023/09/05 01:19:34;;;;;;;;;;;15.10;99.90;;;;;;4984270;28;19957;-32
2023/09/05 01:22:17;;;;;;;;;;;15.00;99.90;;;;;;4973554;28;19949;-32
2023/09/05 01:24:47;;;;;;;;;;;15.00;99.90;;;;;;4992192;28;19959;-31
2023/09/05 01:27:17;;;;;;;;;;;15.00;99.90;;;;;;4984080;28;19957;-31
2023/09/05 01:29:44;;;;;;;;;;;15.00;99.90;;;;;;4983528;28;19944;-32
2023/09/05 01:32:10;;;;;;;;;;;15.00;99.90;;;;;;4988167;28;20395;-32
2023/09/05 01:34:37;;;;;;;;;;;15.00;99.90;;;;;;4982011;28;20353;-32
2023/09/05 01:37:04;;;;;;;;;;;15.00;99.90;;;;;;4979169;28;19949;-32
2023/09/05 01:39:31;;;;;;;;;;;15.00;99.90;;;;;;4989156;28;19946;-32
2023/09/05 01:41:59;;;;;;;;;;;14.90;99.90;;;;;;4973683;28;19953;-33
2023/09/05 01:44:26;;;;;;;;;;;14.90;99.90;;;;;;4979964;28;20006;-31
2023/09/05 01:46:52;;;;;;;;;;;14.90;99.90;;;;;;4988099;28;20488;-33
2023/09/05 01:49:19;;;;;;;;;;;14.90;99.90;;;;;;4992213;28;19949;-32
2023/09/05 01:51:46;;;;;;;;;;;14.80;99.90;;;;;;4988676;28;19967;-33
2023/09/05 01:54:13;;;;;;;;;;;14.80;99.90;;;;;;4993585;28;19943;-33
2023/09/05 01:56:39;;;;;;;;;;;14.80;99.90;;;;;;4992836;28;19988;-31
2023/09/05 01:59:07;;;;;;;;;;;14.80;99.90;;;;;;4993596;28;19942;-32
2023/09/05 02:01:34;;;;;;;;;;;14.80;99.90;;;;;;4980098;28;19958;-32
2023/09/05 02:04:01;;;;;;;;;;;14.80;99.90;;;;;;4982872;28;19941;-31
2023/09/05 02:06:28;;;;;;;;;;;14.80;99.90;;;;;;4993097;28;19963;-32
2023/09/05 02:08:54;;;;;;;;;;;14.80;99.90;;;;;;4997901;28;19992;-32
2023/09/05 02:11:21;;;;;;;;;;;14.80;99.90;;;;;;4993210;28;19950;-32
2023/09/05 02:13:47;;;;;;;;;;;14.70;99.90;;;;;;4979334;28;19947;-33
2023/09/05 02:16:18;;;;;;;;;;;14.70;99.90;;;;;;4983081;28;19957;-31
2023/09/05 02:18:45;;;;;;;;;;;14.70;99.90;;;;;;4979167;28;19944;-31
2023/09/05 02:21:12;;;;;;;;;;;14.70;99.90;;;;;;4976809;28;19950;-32
2023/09/05 02:23:38;;;;;;;;;;;14.70;99.90;;;;;;4986788;28;19951;-31
2023/09/05 02:26:05;;;;;;;;;;;14.70;99.90;;;;;;4980794;28;19961;-30
2023/09/05 02:28:32;;;;;;;;;;;14.70;99.90;;;;;;4985271;28;19940;-31
2023/09/05 02:30:58;;;;;;;;;;;14.70;99.90;;;;;;4981746;28;19954;-31
2023/09/05 02:33:29;;;;;;;;;;;14.70;99.90;;;;;;4983118;28;19982;-32
2023/09/05 02:36:02;;;;;;;;;;;14.70;99.90;;;;;;4991194;28;19997;-31
2023/09/05 02:38:29;;;;;;;;;;;14.70;99.90;;;;;;4986360;28;20369;-32
2023/09/05 02:40:56;;;;;;;;;;;14.70;99.90;;;;;;4973014;28;20028;-33
2023/09/05 02:43:22;;;;;;;;;;;14.70;99.90;;;;;;4976897;28;19939;-33
2023/09/05 02:45:52;;;;;;;;;;;14.70;99.90;;;;;;4977127;28;20417;-32
2023/09/05 02:48:19;;;;;;;;;;;14.70;99.90;;;;;;4973191;28;20399;-32
2023/09/05 02:50:47;;;;;;;;;;;14.60;99.90;;;;;;4983776;28;19945;-32
2023/09/05 02:53:13;;;;;;;;;;;14.70;99.90;;;;;;4990632;28;19949;-32
2023/09/05 02:55:43;;;;;;;;;;;14.70;99.90;;;;;;5000136;28;19941;-32
2023/09/05 02:58:10;;;;;;;;;;;14.60;99.90;;;;;;4971820;28;20364;-33
2023/09/05 03:00:37;;;;;;;;;;;14.70;99.90;;;;;;4973433;28;19944;-32
2023/09/05 03:03:04;;;;;;;;;;;14.70;99.90;;;;;;4989271;28;20397;-30
2023/09/05 03:05:30;;;;;;;;;;;14.70;99.90;;;;;;4992498;28;20371;-31
2023/09/05 03:07:58;;;;;;;;;;;14.70;99.90;;;;;;4992690;28;19955;-32
2023/09/05 03:10:25;;;;;;;;;;;14.70;99.90;;;;;;4995599;28;20397;-31
2023/09/05 03:12:51;;;;;;;;;;;14.70;99.90;;;;;;4995184;28;20356;-32
2023/09/05 03:15:20;;;;;;;;;;;14.70;99.90;;;;;;4994842;28;20038;-32
2023/09/05 03:17:47;;;;;;;;;;;14.70;99.90;;;;;;4997988;28;19971;-31
2023/09/05 03:20:15;;;;;;;;;;;14.60;99.90;;;;;;4996259;28;19945;-32
2023/09/05 03:22:42;;;;;;;;;;;14.60;99.90;;;;;;4996243;28;20049;-31
2023/09/05 03:25:10;;;;;;;;;;;14.60;99.90;;;;;;4995642;28;19970;-31
2023/09/05 03:27:37;;;;;;;;;;;14.60;99.90;;;;;;4996355;28;20393;-32
2023/09/05 03:30:04;;;;;;;;;;;14.60;99.90;;;;;;4996060;28;20403;-31
2023/09/05 03:32:30;;;;;;;;;;;14.50;99.90;;;;;;4996612;28;20511;-31
2023/09/05 03:34:57;;;;;;;;;;;14.50;99.90;;;;;;4995573;28;20460;-31
2023/09/05 03:37:24;;;;;;;;;;;14.50;99.90;;;;;;4996014;28;19950;-32
2023/09/05 03:39:51;;;;;;;;;;;14.50;99.90;;;;;;4995133;28;19949;-32
2023/09/05 03:42:19;;;;;;;;;;;14.50;99.90;;;;;;4999394;28;19940;-32
2023/09/05 03:44:46;;;;;;;;;;;14.50;99.90;;;;;;5014358;28;19950;-33
2023/09/05 03:47:13;;;;;;;;;;;14.50;99.90;;;;;;5011010;28;20003;-33
2023/09/05 03:49:39;;;;;;;;;;;14.50;99.90;;;;;;4995513;28;19949;-33
2023/09/05 03:52:06;;;;;;;;;;;14.40;99.90;;;;;;4993527;28;19968;-33
2023/09/05 03:54:33;;;;;;;;;;;14.50;99.90;;;;;;4993811;28;19946;-33
2023/09/05 03:57:00;;;;;;;;;;;14.40;99.90;;;;;;4995408;28;20387;-32
2023/09/05 03:59:28;;;;;;;;;;;14.40;99.90;;;;;;4995687;28;20004;-31
2023/09/05 04:01:54;;;;;;;;;;;14.40;99.90;;;;;;4995106;28;20323;-32
2023/09/05 04:04:21;;;;;;;;;;;14.40;99.90;;;;;;4999182;28;19942;-33
2023/09/05 04:06:48;;;;;;;;;;;14.40;99.90;;;;;;4995983;28;19962;-34
2023/09/05 04:09:15;;;;;;;;;;;14.40;99.90;;;;;;4993929;28;19943;-31
2023/09/05 04:11:41;;;;;;;;;;;14.40;99.90;;;;;;5000362;28;19942;-32
2023/09/05 04:14:08;;;;;;;;;;;14.40;99.90;;;;;;4989864;28;20332;-30
2023/09/05 04:16:36;;;;;;;;;;;14.40;99.90;;;;;;4983682;28;19944;-31
2023/09/05 04:19:03;;;;;;;;;;;14.40;99.90;;;;;;4995360;28;19952;-32
2023/09/05 04:21:29;;;;;;;;;;;14.30;99.90;;;;;;5008124;28;20376;-33
2023/09/05 04:23:56;;;;;;;;;;;14.30;99.90;;;;;;5000286;28;20431;-32
2023/09/05 04:26:25;;;;;;;;;;;14.30;99.90;;;;;;4994148;28;19958;-33
2023/09/05 04:28:51;;;;;;;;;;;14.30;99.90;;;;;;5000707;28;19943;-32
2023/09/05 04:31:19;;;;;;;;;;;14.30;99.90;;;;;;4981117;28;19954;-33
2023/09/05 04:33:47;;;;;;;;;;;14.30;99.90;;;;;;4995522;28;19940;-32
2023/09/05 04:36:14;;;;;;;;;;;14.30;99.90;;;;;;4990908;28;19984;-32
2023/09/05 04:38:43;;;;;;;;;;;14.30;99.90;;;;;;4993344;28;19952;-32
2023/09/05 04:41:09;;;;;;;;;;;14.30;99.90;;;;;;4993965;28;20153;-33
2023/09/05 04:43:36;;;;;;;;;;;14.20;99.90;;;;;;4995333;28;19980;-32
2023/09/05 04:46:05;;;;;;;;;;;14.20;99.90;;;;;;4992631;28;19958;-32
2023/09/05 04:48:32;;;;;;;;;;;14.20;99.90;;;;;;4993788;28;20310;-32
2023/09/05 04:51:01;;;;;;;;;;;14.20;99.90;;;;;;4999053;28;20010;-31
2023/09/05 04:53:28;;;;;;;;;;;14.20;99.90;;;;;;4993079;28;19942;-32
2023/09/05 04:55:58;;;;;;;;;;;14.20;99.90;;;;;;4993331;28;19944;-32
2023/09/05 04:58:25;;;;;;;;;;;14.20;99.90;;;;;;4993207;28;19944;-32
2023/09/05 05:00:52;;;;;;;;;;;14.10;99.90;;;;;;4988524;28;20084;-32
2023/09/05 05:03:18;;;;;;;;;;;14.10;99.90;;;;;;4988843;28;19943;-32
2023/09/05 05:05:48;;;;;;;;;;;14.10;99.90;;;;;;4994154;28;19969;-33
2023/09/05 05:08:16;;;;;;;;;;;14.10;99.90;;;;;;4991755;28;20502;-33
2023/09/05 05:10:43;;;;;;;;;;;14.10;99.90;;;;;;4991601;28;19946;-33
2023/09/05 05:13:09;;;;;;;;;;;14.10;99.90;;;;;;4992494;28;19995;-33
2023/09/05 05:15:36;;;;;;;;;;;14.10;99.90;;;;;;4988278;28;19971;-32
2023/09/05 05:18:03;;;;;;;;;;;14.10;99.90;;;;;;4985959;28;19946;-33
2023/09/05 05:20:29;;;;;;;;;;;14.10;99.90;;;;;;4991181;28;19989;-31
2023/09/05 05:22:56;;;;;;;;;;;14.10;99.90;;;;;;4981650;28;20404;-31
2023/09/05 05:25:24;;;;;;;;;;;14.10;99.90;;;;;;4989423;28;19967;-32
2023/09/05 05:27:51;;;;;;;;;;;14.10;99.90;;;;;;4989050;28;20389;-32
2023/09/05 05:30:17;;;;;;;;;;;14.10;99.90;;;;;;4987610;28;20387;-32
2023/09/05 05:32:46;;;;;;;;;;;14.10;99.90;;;;;;4992458;28;20424;-33
2023/09/05 05:35:12;;;;;;;;;;;14.10;99.90;;;;;;4988236;28;19993;-32
2023/09/05 05:37:39;;;;;;;;;;;14.10;99.90;;;;;;4987582;28;20003;-32
2023/09/05 05:40:06;;;;;;;;;;;14.20;99.90;;;;;;4989178;28;20311;-32
2023/09/05 05:42:34;;;;;;;;;;;14.20;99.90;;;;;;4989516;28;19952;-32
2023/09/05 05:45:01;;;;;;;;;;;14.20;99.90;;;;;;4987156;28;19947;-32
2023/09/05 05:47:28;;;;;;;;;;;14.20;99.90;;;;;;4992339;28;19979;-34
2023/09/05 05:49:54;;;;;;;;;;;14.20;99.90;;;;;;4984870;28;19953;-33
2023/09/05 05:52:21;;;;;;;;;;;14.30;99.90;;;;;;4992020;28;20391;-32
2023/09/05 05:54:48;;;;;;;;;;;14.30;99.90;;;;;;4995099;28;19967;-31
2023/09/05 05:57:14;;;;;;;;;;;14.30;99.90;;;;;;4990773;28;19947;-33
2023/09/05 05:59:43;;;;;;;;;;;14.30;99.90;;;;;;4988227;28;19982;-34
2023/09/05 06:02:09;;;;;;;;;;;14.40;99.90;;;;;;4984668;28;19948;-31
2023/09/05 06:04:36;;;;;;;;;;;14.40;99.90;;;;;;4980458;28;19950;-32
2023/09/05 06:07:03;;;;;;;;;;;14.50;99.90;;;;;;4989125;28;20333;-32
2023/09/05 06:09:29;;;;;;;;;;;14.60;99.90;;;;;;4990855;28;19950;-32
2023/09/05 06:11:56;;;;;;;;;;;14.60;99.90;;;;;;4990037;28;20003;-32
2023/09/05 06:14:23;;;;;;;;;;;14.80;99.90;;;;;;4991436;28;19997;-32
2023/09/05 06:16:51;;;;;;;;;;;14.90;99.90;;;;;;4971674;28;20072;-32
2023/09/05 06:19:17;;;;;;;;;;;15.00;99.90;;;;;;4961462;28;20000;-33
2023/09/05 06:21:46;;;;;;;;;;;15.10;99.90;;;;;;4981670;28;19966;-33
2023/09/05 06:24:13;;;;;;;;;;;15.20;99.90;;;;;;4985258;28;19977;-32
2023/09/05 06:26:41;;;;;;;;;;;15.40;99.90;;;;;;4971857;28;19980;-32
2023/09/05 06:29:08;;;;;;;;;;;15.50;99.90;;;;;;4971809;28;20348;-32
2023/09/05 06:31:34;;;;;;;;;;;15.60;99.90;;;;;;4972179;28;19950;-33
2023/09/05 06:34:02;;;;;;;;;;;15.70;99.90;;;;;;4979031;28;19942;-33
2023/09/05 06:36:29;;;;;;;;;;;15.80;99.90;;;;;;4964981;28;19950;-32
2023/09/05 06:38:56;;;;;;;;;;;15.90;99.90;;;;;;4964061;28;20024;-32
2023/09/05 06:41:22;;;;;;;;;;;16.00;99.90;;;;;;4965645;28;19950;-31
2023/09/05 06:43:50;;;;;;;;;;;16.20;99.90;;;;;;4989236;28;19938;-31
2023/09/05 06:46:16;;;;;;;;;;;16.30;99.90;;;;;;4966950;28;19957;-32
2023/09/05 06:48:43;;;;;;;;;;;16.40;99.90;;;;;;4972233;28;19943;-33
2023/09/05 06:51:11;;;;;;;;;;;16.50;99.90;;;;;;4974298;28;19999;-32
2023/09/05 06:53:38;;;;;;;;;;;16.70;99.90;;;;;;4970780;28;19997;-31
2023/09/05 06:56:05;;;;;;;;;;;16.80;99.90;;;;;;4973484;28;19946;-31
2023/09/05 06:58:32;;;;;;;;;;;16.90;99.90;;;;;;4972177;28;19962;-32
2023/09/05 07:00:58;;;;;;;;;;;17.10;99.90;;;;;;4964231;28;19969;-32
2023/09/05 07:03:26;;;;;;;;;;;17.20;99.90;;;;;;4978925;28;19944;-32
2023/09/05 07:05:52;;;;;;;;;;;17.30;99.90;;;;;;4993967;28;19944;-32
2023/09/05 07:08:21;;;;;;;;;;;17.50;99.90;;;;;;4982000;28;19941;-32
2023/09/05 07:10:48;;;;;;;;;;;17.60;99.90;;;;;;4975392;28;19946;-33
2023/09/05 07:13:16;;;;;;;;;;;17.80;99.90;;;;;;4974759;28;19943;-31
2023/09/05 07:15:43;;;;;;;;;;;17.90;99.90;;;;;;4983874;28;19963;-33
2023/09/05 07:18:10;;;;;;;;;;;18.10;99.90;;;;;;4994270;28;19969;-33
2023/09/05 07:20:37;;;;;;;;;;;18.20;99.90;;;;;;4992388;28;19989;-32
2023/09/05 07:23:04;;;;;;;;;;;18.40;99.90;;;;;;4993404;28;19948;-32
2023/09/05 07:25:32;;;;;;;;;;;18.50;99.90;;;;;;5001043;28;19943;-32
2023/09/05 07:27:59;;;;;;;;;;;18.70;99.90;;;;;;4998446;28;19995;-31
2023/09/05 07:30:26;;;;;;;;;;;18.80;99.90;;;;;;4993777;28;19955;-31
2023/09/05 07:32:53;;;;;;;;;;;19.00;99.90;;;;;;4997374;28;19943;-32
2023/09/05 07:35:19;;;;;;;;;;;19.10;99.90;;;;;;4998791;28;19943;-32
2023/09/05 07:37:46;;;;;;;;;;;19.30;99.90;;;;;;4991650;28;20400;-32
2023/09/05 07:40:14;;;;;;;;;;;19.50;99.90;;;;;;4992141;28;20352;-32
2023/09/05 07:42:42;;;;;;;;;;;19.60;99.90;;;;;;4992933;28;19947;-32
2023/09/05 07:45:10;;;;;;;;;;;19.80;99.90;;;;;;4993708;28;20391;-33
2023/09/05 07:47:36;;;;;;;;;;;19.90;99.90;;;;;;5009095;28;19960;-31
2023/09/05 07:50:03;;;;;;;;;;;20.10;99.90;;;;;;4994719;28;20043;-31
2023/09/05 07:52:30;;;;;;;;;;;20.20;99.90;;;;;;4993332;28;19949;-31
2023/09/05 07:54:56;;;;;;;;;;;20.40;99.90;;;;;;4996368;28;19944;-31
2023/09/05 07:57:23;;;;;;;;;;;20.50;99.90;;;;;;4990716;28;20029;-31
2023/09/05 07:59:51;;;;;;;;;;;20.70;99.90;;;;;;4982953;28;19941;-34
2023/09/05 08:02:18;;;;;;;;;;;20.90;99.90;;;;;;4990621;28;19947;-31
2023/09/05 08:04:45;;;;;;;;;;;21.00;99.90;;;;;;4986505;28;20311;-32
2023/09/05 08:07:11;;;;;;;;;;;21.20;99.90;;;;;;4988430;28;19959;-32
2023/09/05 08:09:38;;;;;;;;;;;21.40;99.90;;;;;;4991920;28;19995;-32
2023/09/05 08:12:05;;;;;;;;;;;21.50;99.90;;;;;;4984916;28;20396;-33
2023/09/05 08:14:32;;;;;;;;;;;21.70;99.90;;;;;;4988168;28;19948;-32
2023/09/05 08:17:00;;;;;;;;;;;21.80;99.90;;;;;;4984518;28;20291;-32
2023/09/05 08:19:26;;;;;;;;;;;22.00;99.90;;;;;;4987984;28;19941;-33
2023/09/05 08:21:53;;;;;;;;;;;22.20;99.90;;;;;;4992982;28;19985;-33
2023/09/05 08:24:20;;;;;;;;;;;22.30;99.90;;;;;;4987491;28;20018;-32
2023/09/05 08:26:46;;;;;;;;;;;22.50;99.90;;;;;;4985587;28;19954;-32
2023/09/05 08:29:14;;;;;;;;;;;22.70;99.90;;;;;;4983381;28;19943;-33
2023/09/05 08:31:40;;;;;;;;;;;22.80;99.90;;;;;;4979001;28;19987;-32
2023/09/05 08:34:09;;;;;;;;;;;22.90;99.90;;;;;;4995173;28;19944;-32
2023/09/05 08:36:35;;;;;;;;;;;23.00;99.90;;;;;;4998919;28;20410;-32
2023/09/05 08:39:04;;;;;;;;;;;23.10;99.90;;;;;;5005899;28;19947;-32
2023/09/05 08:41:31;;;;;;;;;;;23.30;99.90;;;;;;5012976;28;20430;-33
2023/09/05 08:43:58;;;;;;;;;;;23.40;99.90;;;;;;5003687;28;19948;-32
2023/09/05 08:46:25;;;;;;;;;;;23.50;99.90;;;;;;4993106;28;20419;-32
2023/09/05 08:48:52;;;;;;;;;;;23.70;99.90;;;;;;4992282;28;19947;-31
2023/09/05 08:51:21;;;;;;;;;;;23.80;99.90;;;;;;4990496;28;19951;-32
2023/09/05 08:53:51;;;;;;;;;;;24.00;99.90;;;;;;4991935;28;19950;-33
2023/09/05 08:56:17;;;;;;;;;;;24.10;99.90;;;;;;4995900;28;20410;-33
2023/09/05 08:58:44;;;;;;;;;;;24.20;99.90;;;;;;4990946;28;19939;-33
2023/09/05 09:01:11;;;;;;;;;;;24.30;99.90;;;;;;4990417;28;19944;-32
2023/09/05 09:03:38;;;;;;;;;;;24.50;99.90;;;;;;4989025;28;19977;-33
2023/09/05 09:06:04;;;;;;;;;;;24.60;99.90;;;;;;4989404;28;19993;-33
2023/09/05 09:08:41;;;;;;;;;;;24.80;99.90;;;;;;4992335;28;19965;-32
2023/09/05 09:11:08;;;;;;;;;;;24.90;99.90;;;;;;4992564;28;19946;-32
2023/09/05 09:13:34;;;;;;;;;;;25.10;99.90;;;;;;4990723;28;20006;-32
2023/09/05 09:16:02;;;;;;;;;;;25.20;99.90;;;;;;4990211;28;19957;-33
2023/09/05 09:18:31;;;;;;;;;;;25.20;99.90;;;;;;4990750;28;20340;-30
2023/09/05 09:20:59;;;;;;;;;;;25.40;99.90;;;;;;4990474;28;19942;-32
2023/09/05 09:23:26;;;;;;;;;;;25.50;99.90;;;;;;4987394;28;20130;-32
2023/09/05 09:25:54;;;;;;;;;;;25.70;99.90;;;;;;4990718;28;19952;-31
2023/09/05 09:28:21;;;;;;;;;;;25.90;99.90;;;;;;4982354;28;19960;-32
2023/09/05 09:30:49;;;;;;;;;;;26.00;99.90;;;;;;4998037;28;19946;-34
2023/09/05 09:33:16;;;;;;;;;;;26.10;99.90;;;;;;4991147;28;20319;-33
2023/09/05 09:35:42;;;;;;;;;;;26.20;99.90;;;;;;4990984;28;20444;-33
2023/09/05 09:38:09;;;;;;;;;;;26.30;99.90;;;;;;4990978;28;19949;-32
2023/09/05 09:40:36;;;;;;;;;;;26.40;98.10;;;;;;4977573;28;20341;-32
2023/09/05 09:43:03;;;;;;;;;;;26.60;99.20;;;;;;4979218;28;20405;-33
2023/09/05 09:45:30;;;;;;;;;;;26.60;98.00;;;;;;4977925;28;19948;-33
2023/09/05 09:47:57;;;;;;;;;;;26.80;97.70;;;;;;4984698;28;20057;-33
2023/09/05 09:50:24;;;;;;;;;;;26.90;98.60;;;;;;4993622;28;20387;-33
2023/09/05 09:52:53;;;;;;;;;;;27.00;98.20;;;;;;5001068;28;19951;-31
2023/09/05 09:55:19;;;;;;;;;;;27.10;98.30;;;;;;5002911;28;20050;-32
2023/09/05 09:57:47;;;;;;;;;;;27.10;97.80;;;;;;4990051;28;19941;-31
2023/09/05 10:00:18;;;;;;;;;;;27.20;98.50;;;;;;4991797;28;19945;-32
2023/09/05 10:02:46;;;;;;;;;;;27.40;96.40;;;;;;4990366;28;19948;-32
2023/09/05 10:05:15;;;;;;;;;;;27.50;97.70;;;;;;4989461;28;19947;-32
2023/09/05 10:07:42;;;;;;;;;;;27.50;96.10;;;;;;4989078;28;19958;-32
2023/09/05 10:10:09;;;;;;;;;;;27.60;94.90;;;;;;4990154;28;19996;-33
2023/09/05 10:12:36;;;;;;;;;;;27.60;95.70;;;;;;4990184;28;19952;-32
2023/09/05 10:15:03;;;;;;;;;;;27.70;95.40;;;;;;4990753;28;19964;-34
2023/09/05 10:17:31;;;;;;;;;;;27.80;94.20;;;;;;4989828;28;19991;-32
2023/09/05 10:19:58;;;;;;;;;;;27.80;94.50;;;;;;4984623;28;20001;-33
2023/09/05 10:22:24;;;;;;;;;;;27.90;95.40;;;;;;4985522;28;19939;-33
2023/09/05 10:24:51;;;;;;;;;;;28.00;94.20;;;;;;4990379;28;19949;-33
2023/09/05 10:27:18;;;;;;;;;;;28.10;94.40;;;;;;4986768;28;20606;-33
2023/09/05 10:29:45;;;;;;;;;;;28.10;94.00;;;;;;4993034;28;19946;-32
2023/09/05 10:32:12;;;;;;;;;;;28.10;94.20;;;;;;4989592;28;19943;-32
2023/09/05 10:34:55;;;;;;;;;;;28.30;93.90;;;;;;4991448;28;19950;-32
2023/09/05 10:37:22;;;;;;;;;;;28.30;93.70;;;;;;4990214;28;19994;-33
2023/09/05 10:39:49;;;;;;;;;;;28.40;94.10;;;;;;4988757;28;19938;-32
2023/09/05 10:42:16;;;;;;;;;;;28.40;93.10;;;;;;4991226;28;19946;-33
2023/09/05 10:44:43;;;;;;;;;;;28.50;93.40;;;;;;4989756;28;19945;-32
2023/09/05 10:47:23;;;;;;;;;;;28.60;93.80;;;;;;4987169;28;19949;-32
2023/09/05 10:49:50;;;;;;;;;;;28.70;91.00;;;;;;4988036;28;20008;-31
2023/09/05 10:52:18;;;;;;;;;;;28.80;93.40;;;;;;4989842;28;20018;-32
2023/09/05 10:54:45;;;;;;;;;;;29.00;93.10;;;;;;4989550;28;19941;-33
2023/09/05 10:57:30;;;;;;;;;;;29.10;93.90;;;;;;4988227;28;19942;-32
2023/09/05 10:59:57;;;;;;;;;;;29.10;91.50;;;;;;5002101;28;19946;-33
2023/09/05 11:02:25;;;;;;;;;;;29.20;91.80;;;;;;4995111;28;19962;-33
2023/09/05 11:04:52;;;;;;;;;;;29.30;91.40;;;;;;4989153;28;19991;-33
2023/09/05 11:07:21;;;;;;;;;;;29.40;91.00;;;;;;4991071;28;20340;-34
2023/09/05 11:09:49;;;;;;;;;;;29.40;91.30;;;;;;4990180;28;19950;-35
2023/09/05 11:12:16;;;;;;;;;;;29.50;91.30;;;;;;4973038;28;20001;-33
2023/09/05 11:14:43;;;;;;;;;;;29.60;90.10;;;;;;4990370;28;20427;-33
2023/09/05 11:17:13;;;;;;;;;;;29.60;90.40;;;;;;4990151;28;19946;-36
2023/09/05 11:19:42;;;;;;;;;;;29.70;88.00;;;;;;4991340;28;19947;-35
2023/09/05 11:22:14;;;;;;;;;;;29.70;88.00;;;;;;4989195;28;19951;-33
2023/09/05 11:24:47;;;;;;;;;;;29.70;87.10;;;;;;4988577;28;20331;-31
2023/09/05 11:27:14;;;;;;;;;;;29.70;86.20;;;;;;4990793;28;19982;-33
2023/09/05 11:29:42;;;;;;;;;;;29.70;85.80;;;;;;4996940;28;19951;-32
2023/09/05 11:32:12;;;;;;;;;;;29.80;86.60;;;;;;4992820;28;19951;-32
2023/09/05 11:34:40;;;;;;;;;;;29.80;83.90;;;;;;4990238;28;19991;-32
2023/09/05 11:37:07;;;;;;;;;;;29.90;84.80;;;;;;4994048;28;19989;-32
2023/09/05 11:39:34;;;;;;;;;;;30.00;84.50;;;;;;4993354;28;19944;-32
2023/09/05 11:42:02;;;;;;;;;;;30.10;81.80;;;;;;4993932;28;19954;-33
2023/09/05 11:44:37;;;;;;;;;;;30.10;84.20;;;;;;4995292;28;19946;-33
2023/09/05 11:47:04;;;;;;;;;;;30.10;85.60;;;;;;4986270;28;19965;-32
2023/09/05 11:49:31;;;;;;;;;;;30.30;86.00;;;;;;4995484;28;19955;-33
2023/09/05 11:52:00;;;;;;;;;;;30.40;85.70;;;;;;4990416;28;20473;-32
2023/09/05 11:54:27;;;;;;;;;;;30.50;82.50;;;;;;4991927;28;20350;-32
2023/09/05 11:56:53;;;;;;;;;;;30.50;83.60;;;;;;4993007;28;20478;-33
2023/09/05 11:59:21;;;;;;;;;;;30.50;83.60;;;;;;4991631;28;19988;-33
2023/09/05 12:01:48;;;;;;;;;;;30.60;83.20;;;;;;4992463;28;19946;-33
2023/09/05 12:04:16;;;;;;;;;;;30.70;83.00;;;;;;4986303;28;19947;-33
2023/09/05 12:06:43;;;;;;;;;;;30.70;81.80;;;;;;4984352;28;20003;-32
2023/09/05 12:09:10;;;;;;;;;;;30.80;81.50;;;;;;4993471;28;19960;-32
2023/09/05 12:11:36;;;;;;;;;;;30.80;81.20;;;;;;4999753;28;19969;-32
2023/09/05 12:14:04;;;;;;;;;;;30.80;81.20;;;;;;4992453;28;19994;-33
2023/09/05 12:16:32;;;;;;;;;;;30.80;81.10;;;;;;4994566;28;19959;-33
2023/09/05 12:18:59;;;;;;;;;;;30.80;80.90;;;;;;4996179;28;20025;-32
2023/09/05 12:21:28;;;;;;;;;;;30.80;81.60;;;;;;5014743;28;19947;-32
2023/09/05 12:23:54;;;;;;;;;;;30.90;80.30;;;;;;5014917;28;19945;-32
2023/09/05 12:26:21;;;;;;;;;;;30.90;81.30;;;;;;5014885;28;19945;-34
2023/09/05 12:28:58;;;;;;;;;;;31.00;83.00;;;;;;5012533;28;19962;-33
2023/09/05 12:31:24;;;;;;;;;;;31.10;80.40;;;;;;5011581;28;20005;-33
2023/09/05 12:33:52;;;;;;;;;;;31.10;78.00;;;;;;5013668;28;20397;-35
2023/09/05 12:36:19;;;;;;;;;;;31.10;82.50;;;;;;5010892;28;19954;-33
2023/09/05 12:38:46;;;;;;;;;;;31.20;80.10;;;;;;5013084;28;19989;-33
2023/09/05 12:41:13;;;;;;;;;;;31.30;81.30;;;;;;4988227;28;20108;-32
2023/09/05 12:43:40;;;;;;;;;;;31.30;80.10;;;;;;4988237;28;19947;-34
2023/09/05 12:46:07;;;;;;;;;;;31.40;79.30;;;;;;4986184;28;19952;-32
2023/09/05 12:48:34;;;;;;;;;;;31.40;81.90;;;;;;4985233;28;20009;-32
2023/09/05 12:51:04;;;;;;;;;;;31.60;83.10;;;;;;4987283;28;19949;-32
2023/09/05 12:53:31;;;;;;;;;;;31.60;78.70;;;;;;4988612;28;20357;-32
2023/09/05 12:55:58;;;;;;;;;;;31.70;80.50;;;;;;4986077;28;19938;-33
2023/09/05 12:58:26;;;;;;;;;;;31.80;79.30;;;;;;5006261;28;19951;-33
2023/09/05 13:00:53;;;;;;;;;;;31.80;79.50;;;;;;4994249;28;20474;-33
2023/09/05 13:03:19;;;;;;;;;;;31.80;80.30;;;;;;4999055;28;19939;-33
2023/09/05 13:05:46;;;;;;;;;;;31.90;79.70;;;;;;4992879;28;19940;-33
2023/09/05 13:08:14;;;;;;;;;;;31.90;79.00;;;;;;4991144;28;19960;-32
2023/09/05 13:10:41;;;;;;;;;;;32.00;78.90;;;;;;4993671;28;19946;-33
2023/09/05 13:13:07;;;;;;;;;;;32.10;80.80;;;;;;4988917;28;20300;-33
2023/09/05 13:15:34;;;;;;;;;;;32.20;80.70;;;;;;4992290;28;19974;-34
2023/09/05 13:18:01;;;;;;;;;;;32.20;74.80;;;;;;4984579;28;19945;-35
2023/09/05 13:20:27;;;;;;;;;;;32.10;76.20;;;;;;4983426;28;20006;-33
2023/09/05 13:22:54;;;;;;;;;;;32.10;77.00;;;;;;4983573;28;20293;-33
2023/09/05 13:25:24;;;;;;;;;;;32.20;75.60;;;;;;5012841;28;20326;-33
2023/09/05 13:27:51;;;;;;;;;;;32.20;77.90;;;;;;4994063;28;19952;-33
2023/09/05 13:30:18;;;;;;;;;;;32.20;76.80;;;;;;4991822;28;19947;-33
2023/09/05 13:32:44;;;;;;;;;;;32.30;78.90;;;;;;4992799;28;19948;-33
2023/09/05 13:35:11;;;;;;;;;;;32.40;78.00;;;;;;4993193;28;19945;-34
2023/09/05 13:37:38;;;;;;;;;;;32.40;77.90;;;;;;4990498;28;19998;-34
2023/09/05 13:40:05;;;;;;;;;;;32.30;77.00;;;;;;4978690;28;19950;-33
2023/09/05 13:42:33;;;;;;;;;;;32.40;79.30;;;;;;4980973;28;20088;-34
2023/09/05 13:45:00;;;;;;;;;;;32.50;78.70;;;;;;4985018;28;19943;-35
2023/09/05 13:47:27;;;;;;;;;;;32.50;79.30;;;;;;4989642;28;19942;-33
2023/09/05 13:49:55;;;;;;;;;;;32.60;75.20;;;;;;4984873;28;19994;-32
2023/09/05 13:52:21;;;;;;;;;;;32.70;76.80;;;;;;4987392;28;20031;-32
2023/09/05 13:54:48;;;;;;;;;;;32.70;76.70;;;;;;4980549;28;19940;-36
2023/09/05 13:57:15;;;;;;;;;;;32.80;78.80;;;;;;4983600;28;20011;-33
2023/09/05 13:59:44;;;;;;;;;;;32.80;78.70;;;;;;4980139;28;19955;-35
2023/09/05 14:02:11;;;;;;;;;;;32.90;76.50;;;;;;4978501;28;19949;-35
2023/09/05 14:04:38;;;;;;;;;;;32.90;79.20;;;;;;4980654;28;19945;-32
2023/09/05 14:07:05;;;;;;;;;;;33.00;76.00;;;;;;4985894;28;19946;-32
2023/09/05 14:09:31;;;;;;;;;;;33.00;77.20;;;;;;4992483;28;20021;-32
2023/09/05 14:11:58;;;;;;;;;;;33.10;78.30;;;;;;4993214;28;19945;-35
2023/09/05 14:14:25;;;;;;;;;;;33.00;73.20;;;;;;4992803;28;19968;-32
2023/09/05 14:16:54;;;;;;;;;;;33.00;74.30;;;;;;4991997;28;19990;-33